sensor_id;sensor_type;location;lat;lon;timestamp;pressure;altitude;pressure_sealevel;temperature;humidity
63090;BME280;49174;43.198;27.824;2023-03-23T04:51:38;101746.38;;;8.43;100.00
63090;BME280;49174;43.198;27.824;2023-03-23T04:54:04;101745.31;;;8.36;100.00
63090;BME280;49174;43.198;27.824;2023-03-23T04:59:11;101747.63;;;8.31;100.00
63090;BME280;49174;43.198;27.824;2023-03-23T05:01:40;101749.31;;;8.32;100.00
63090;BME280;49174;43.198;27.824;2023-03-23T05:04:11;101750.09;;;8.42;100.00
63090;BME280;49174;43.198;27.824;2023-03-23T05:06:38;101756.31;;;8.43;100.00
63090;BME280;49174;43.198;27.824;2023-03-23T05:09:03;101760.84;;;8.42;100.00
63090;BME280;49174;43.198;27.824;2023-03-23T05:11:30;101777.81;;;8.43;100.00
63090;BME280;49174;43.198;27.824;2023-03-23T05:13:55;101771.28;;;8.45;100.00
63090;BME280;49174;43.198;27.824;2023-03-23T05:16:21;101774.03;;;8.54;100.00
63090;BME280;49174;43.198;27.824;2023-03-23T05:18:46;101772.38;;;8.61;100.00
63090;BME280;49174;43.198;27.824;2023-03-23T05:21:13;101769.22;;;8.65;100.00
63090;BME280;49174;43.198;27.824;2023-03-23T05:23:39;101777.94;;;8.59;100.00
63090;BME280;49174;43.198;27.824;2023-03-23T05:26:05;101779.16;;;8.65;100.00
63090;BME280;49174;43.198;27.824;2023-03-23T05:28:31;101777.53;;;8.72;100.00
63090;BME280;49174;43.198;27.824;2023-03-23T05:30:57;101776.88;;;8.78;100.00
63090;BME280;49174;43.198;27.824;2023-03-23T05:33:23;101776.03;;;8.78;100.00
63090;BME280;49174;43.198;27.824;2023-03-23T05:35:48;101784.94;;;8.78;100.00
63090;BME280;49174;43.198;27.824;2023-03-23T05:38:15;101790.78;;;8.73;100.00
63090;BME280;49174;43.198;27.824;2023-03-23T05:40:41;101785.28;;;8.75;100.00
63090;BME280;49174;43.198;27.824;2023-03-23T05:43:08;101796.69;;;8.77;100.00
63090;BME280;49174;43.198;27.824;2023-03-23T05:45:34;101792.34;;;8.76;100.00
63090;BME280;49174;43.198;27.824;2023-03-23T05:48:00;101793.53;;;8.82;100.00
63090;BME280;49174;43.198;27.824;2023-03-23T05:50:27;101797.44;;;8.87;100.00
63090;BME280;49174;43.198;27.824;2023-03-23T05:52:54;101796.13;;;8.91;100.00
63090;BME280;49174;43.198;27.824;2023-03-23T05:55:25;101795.94;;;8.93;100.00
63090;BME280;49174;43.198;27.824;2023-03-23T05:57:50;101805.19;;;8.90;100.00
63090;BME280;49174;43.198;27.824;2023-03-23T06:00:16;101812.22;;;8.83;100.00
63090;BME280;49174;43.198;27.824;2023-03-23T06:02:47;101801.25;;;8.77;100.00
63090;BME280;49174;43.198;27.824;2023-03-23T06:05:13;101812.78;;;8.69;100.00
63090;BME280;49174;43.198;27.824;2023-03-23T06:07:41;101810.31;;;8.76;100.00
63090;BME280;49174;43.198;27.824;2023-03-23T06:10:08;101809.16;;;8.78;100.00
63090;BME280;49174;43.198;27.824;2023-03-23T06:12:35;101813.13;;;8.92;100.00
63090;BME280;49174;43.198;27.824;2023-03-23T06:15:00;101810.28;;;9.02;100.00
63090;BME280;49174;43.198;27.824;2023-03-23T06:17:26;101811.63;;;8.98;100.00
63090;BME280;49174;43.198;27.824;2023-03-23T06:19:52;101809.25;;;8.94;100.00
63090;BME280;49174;43.198;27.824;2023-03-23T06:22:18;101814.75;;;8.85;100.00
63090;BME280;49174;43.198;27.824;2023-03-23T06:24:44;101824.66;;;8.84;100.00
63090;BME280;49174;43.198;27.824;2023-03-23T06:27:09;101820.91;;;8.77;100.00
63090;BME280;49174;43.198;27.824;2023-03-23T06:29:35;101829.00;;;8.77;100.00
63090;BME280;49174;43.198;27.824;2023-03-23T06:32:03;101817.91;;;8.80;100.00
63090;BME280;49174;43.198;27.824;2023-03-23T06:34:30;101827.22;;;8.94;100.00
63090;BME280;49174;43.198;27.824;2023-03-23T06:36:57;101827.78;;;8.98;100.00
63090;BME280;49174;43.198;27.824;2023-03-23T06:39:22;101826.78;;;8.99;100.00
63090;BME280;49174;43.198;27.824;2023-03-23T06:41:49;101835.69;;;8.99;100.00
63090;BME280;49174;43.198;27.824;2023-03-23T06:44:15;101837.03;;;8.95;100.00
63090;BME280;49174;43.198;27.824;2023-03-23T06:46:41;101828.75;;;8.97;100.00
63090;BME280;49174;43.198;27.824;2023-03-23T06:49:08;101837.72;;;8.97;100.00
63090;BME280;49174;43.198;27.824;2023-03-23T06:51:34;101837.72;;;9.05;100.00
63090;BME280;49174;43.198;27.824;2023-03-23T06:53:59;101847.88;;;9.11;100.00
63090;BME280;49174;43.198;27.824;2023-03-23T06:56:25;101840.88;;;9.27;100.00
63090;BME280;49174;43.198;27.824;2023-03-23T06:58:51;101844.13;;;9.38;100.00
63090;BME280;49174;43.198;27.824;2023-03-23T07:01:17;101850.69;;;9.44;100.00
63090;BME280;49174;43.198;27.824;2023-03-23T07:03:43;101848.03;;;9.52;100.00
63090;BME280;49174;43.198;27.824;2023-03-23T07:06:09;101847.56;;;9.57;100.00
63090;BME280;49174;43.198;27.824;2023-03-23T07:08:35;101852.59;;;9.52;100.00
63090;BME280;49174;43.198;27.824;2023-03-23T07:11:02;101851.28;;;9.56;100.00
63090;BME280;49174;43.198;27.824;2023-03-23T07:13:27;101851.59;;;9.61;100.00
63090;BME280;49174;43.198;27.824;2023-03-23T07:15:53;101854.31;;;9.69;100.00
63090;BME280;49174;43.198;27.824;2023-03-23T07:18:20;101851.16;;;9.74;100.00
63090;BME280;49174;43.198;27.824;2023-03-23T07:20:50;101853.19;;;9.80;100.00
63090;BME280;49174;43.198;27.824;2023-03-23T07:23:17;101856.41;;;9.75;100.00
63090;BME280;49174;43.198;27.824;2023-03-23T07:25:43;101861.09;;;9.73;100.00
63090;BME280;49174;43.198;27.824;2023-03-23T07:28:10;101862.44;;;9.77;100.00
63090;BME280;49174;43.198;27.824;2023-03-23T07:30:36;101861.44;;;9.78;100.00
63090;BME280;49174;43.198;27.824;2023-03-23T07:33:07;101855.22;;;9.78;100.00
63090;BME280;49174;43.198;27.824;2023-03-23T07:35:34;101858.13;;;9.93;100.00
63090;BME280;49174;43.198;27.824;2023-03-23T07:38:00;101867.22;;;10.08;100.00
63090;BME280;49174;43.198;27.824;2023-03-23T07:40:26;101856.63;;;10.15;100.00
63090;BME280;49174;43.198;27.824;2023-03-23T07:42:54;101850.06;;;10.25;100.00
63090;BME280;49174;43.198;27.824;2023-03-23T07:45:25;101854.44;;;10.26;100.00
63090;BME280;49174;43.198;27.824;2023-03-23T07:47:52;101854.44;;;10.26;100.00
63090;BME280;49174;43.198;27.824;2023-03-23T07:50:18;101847.06;;;10.28;100.00
63090;BME280;49174;43.198;27.824;2023-03-23T07:52:48;101862.25;;;10.38;100.00
63090;BME280;49174;43.198;27.824;2023-03-23T07:55:13;101861.56;;;10.36;100.00
63090;BME280;49174;43.198;27.824;2023-03-23T07:57:47;101863.56;;;10.42;100.00
63090;BME280;49174;43.198;27.824;2023-03-23T08:00:17;101867.78;;;10.44;100.00
63090;BME280;49174;43.198;27.824;2023-03-23T08:02:50;101864.59;;;10.49;100.00
63090;BME280;49174;43.198;27.824;2023-03-23T08:05:16;101870.34;;;10.46;100.00
63090;BME280;49174;43.198;27.824;2023-03-23T08:07:43;101867.44;;;10.56;100.00
63090;BME280;49174;43.198;27.824;2023-03-23T08:10:11;101867.44;;;10.64;100.00
63090;BME280;49174;43.198;27.824;2023-03-23T08:12:41;101866.28;;;10.66;100.00
63090;BME280;49174;43.198;27.824;2023-03-23T08:15:09;101861.88;;;10.73;100.00
63090;BME280;49174;43.198;27.824;2023-03-23T08:17:38;101872.00;;;10.88;100.00
63090;BME280;49174;43.198;27.824;2023-03-23T08:20:04;101872.47;;;11.00;100.00
63090;BME280;49174;43.198;27.824;2023-03-23T08:22:37;101880.56;;;11.08;100.00
63090;BME280;49174;43.198;27.824;2023-03-23T08:25:04;101882.41;;;11.07;100.00
63090;BME280;49174;43.198;27.824;2023-03-23T08:27:31;101882.41;;;11.07;97.44
63090;BME280;49174;43.198;27.824;2023-03-23T08:29:57;101879.06;;;10.97;96.71
63090;BME280;49174;43.198;27.824;2023-03-23T08:32:23;101876.88;;;10.92;98.44
63090;BME280;49174;43.198;27.824;2023-03-23T08:34:49;101876.34;;;10.97;100.00
63090;BME280;49174;43.198;27.824;2023-03-23T08:37:15;101876.38;;;10.89;98.68
63090;BME280;49174;43.198;27.824;2023-03-23T08:39:42;101879.25;;;10.87;99.64
63090;BME280;49174;43.198;27.824;2023-03-23T08:42:08;101871.31;;;10.86;99.73
63090;BME280;49174;43.198;27.824;2023-03-23T08:44:35;101876.53;;;10.95;99.90
63090;BME280;49174;43.198;27.824;2023-03-23T08:47:02;101877.53;;;11.03;99.87
63090;BME280;49174;43.198;27.824;2023-03-23T08:49:29;101885.81;;;11.09;100.00
63090;BME280;49174;43.198;27.824;2023-03-23T08:51:58;101888.69;;;10.83;98.40
63090;BME280;49174;43.198;27.824;2023-03-23T08:54:24;101878.09;;;10.49;99.32
63090;BME280;49174;43.198;27.824;2023-03-23T08:56:50;101885.16;;;10.58;100.00
63090;BME280;49174;43.198;27.824;2023-03-23T08:59:16;101884.16;;;10.76;100.00
63090;BME280;49174;43.198;27.824;2023-03-23T09:01:41;101884.16;;;10.84;100.00
63090;BME280;49174;43.198;27.824;2023-03-23T09:04:07;101878.69;;;11.08;100.00
63090;BME280;49174;43.198;27.824;2023-03-23T09:06:35;101876.78;;;11.25;94.40
63090;BME280;49174;43.198;27.824;2023-03-23T09:09:02;101883.31;;;11.39;95.92
63090;BME280;49174;43.198;27.824;2023-03-23T09:11:33;101878.69;;;11.56;94.76
63090;BME280;49174;43.198;27.824;2023-03-23T09:13:59;101876.47;;;11.68;96.89
63090;BME280;49174;43.198;27.824;2023-03-23T09:16:24;101877.44;;;11.75;94.24
63090;BME280;49174;43.198;27.824;2023-03-23T09:18:50;101867.13;;;11.78;94.77
63090;BME280;49174;43.198;27.824;2023-03-23T09:21:16;101869.19;;;11.68;91.47
63090;BME280;49174;43.198;27.824;2023-03-23T09:23:41;101876.75;;;11.73;90.31
63090;BME280;49174;43.198;27.824;2023-03-23T09:26:09;101879.47;;;11.73;91.92
63090;BME280;49174;43.198;27.824;2023-03-23T09:28:35;101876.59;;;11.74;91.75
63090;BME280;49174;43.198;27.824;2023-03-23T09:31:01;101869.31;;;11.75;90.61
63090;BME280;49174;43.198;27.824;2023-03-23T09:33:27;101873.53;;;11.46;89.97
63090;BME280;49174;43.198;27.824;2023-03-23T09:35:54;101871.28;;;11.02;91.17
63090;BME280;49174;43.198;27.824;2023-03-23T09:38:20;101876.72;;;10.86;93.80
63090;BME280;49174;43.198;27.824;2023-03-23T09:41:12;101879.00;;;11.22;96.51
63090;BME280;49174;43.198;27.824;2023-03-23T09:48:55;101874.88;;;11.42;94.28
63090;BME280;49174;43.198;27.824;2023-03-23T09:53:49;101869.69;;;11.72;95.52
63090;BME280;49174;43.198;27.824;2023-03-23T09:56:15;101868.75;;;11.56;95.42
63090;BME280;49174;43.198;27.824;2023-03-23T09:58:55;101866.25;;;11.78;97.07
63090;BME280;49174;43.198;27.824;2023-03-23T10:01:23;101869.34;;;12.06;91.91
63090;BME280;49174;43.198;27.824;2023-03-23T10:03:52;101877.53;;;12.21;92.77
63090;BME280;49174;43.198;27.824;2023-03-23T10:06:20;101864.84;;;12.44;94.70
63090;BME280;49174;43.198;27.824;2023-03-23T10:08:47;101856.22;;;12.64;90.66
63090;BME280;49174;43.198;27.824;2023-03-23T10:14:09;101858.16;;;12.70;85.18
63090;BME280;49174;43.198;27.824;2023-03-23T10:19:59;101856.34;;;12.70;83.95
63090;BME280;49174;43.198;27.824;2023-03-23T10:22:14;101857.81;;;12.73;84.33
63090;BME280;49174;43.198;27.824;2023-03-23T10:29:53;101855.22;;;12.94;79.58
63090;BME280;49174;43.198;27.824;2023-03-23T10:32:34;101854.00;;;12.82;83.07
63090;BME280;49174;43.198;27.824;2023-03-23T10:35:03;101854.75;;;12.15;83.88
63090;BME280;49174;43.198;27.824;2023-03-23T10:37:33;101860.88;;;12.32;82.78
63090;BME280;49174;43.198;27.824;2023-03-23T10:40:02;101853.31;;;12.04;83.23
63090;BME280;49174;43.198;27.824;2023-03-23T10:42:30;101851.72;;;12.33;87.36
63090;BME280;49174;43.198;27.824;2023-03-23T10:44:58;101848.16;;;12.56;87.93
63090;BME280;49174;43.198;27.824;2023-03-23T10:47:24;101839.72;;;12.88;85.65
63090;BME280;49174;43.198;27.824;2023-03-23T10:49:56;101844.50;;;13.01;79.61
63090;BME280;49174;43.198;27.824;2023-03-23T10:52:39;101843.84;;;12.84;84.08
63090;BME280;49174;43.198;27.824;2023-03-23T10:55:12;101846.34;;;13.01;82.51
63090;BME280;49174;43.198;27.824;2023-03-23T10:57:40;101843.56;;;13.09;78.32
63090;BME280;49174;43.198;27.824;2023-03-23T11:02:43;101845.16;;;12.88;78.48
63090;BME280;49174;43.198;27.824;2023-03-23T11:05:19;101832.88;;;12.78;77.80
63090;BME280;49174;43.198;27.824;2023-03-23T11:07:50;101835.22;;;12.66;78.95
63090;BME280;49174;43.198;27.824;2023-03-23T11:10:21;101824.00;;;12.69;79.31
63090;BME280;49174;43.198;27.824;2023-03-23T11:12:46;101821.59;;;12.74;82.20
63090;BME280;49174;43.198;27.824;2023-03-23T11:15:28;101818.06;;;12.88;82.27
63090;BME280;49174;43.198;27.824;2023-03-23T11:17:58;101813.28;;;13.05;80.21
63090;BME280;49174;43.198;27.824;2023-03-23T11:20:25;101823.47;;;13.03;78.10
63090;BME280;49174;43.198;27.824;2023-03-23T11:22:52;101817.59;;;13.00;78.59
63090;BME280;49174;43.198;27.824;2023-03-23T11:25:17;101814.59;;;12.94;78.18
63090;BME280;49174;43.198;27.824;2023-03-23T11:27:43;101803.56;;;13.11;81.39
63090;BME280;49174;43.198;27.824;2023-03-23T11:30:10;101807.31;;;13.25;81.38
63090;BME280;49174;43.198;27.824;2023-03-23T11:32:36;101811.72;;;13.40;76.62
63090;BME280;49174;43.198;27.824;2023-03-23T11:35:06;101812.34;;;13.43;76.78
63090;BME280;49174;43.198;27.824;2023-03-23T11:37:35;101807.41;;;13.46;78.29
63090;BME280;49174;43.198;27.824;2023-03-23T11:42:45;101823.56;;;13.39;73.82
63090;BME280;49174;43.198;27.824;2023-03-23T11:47:40;101811.16;;;13.30;76.88
63090;BME280;49174;43.198;27.824;2023-03-23T11:50:24;101814.88;;;13.44;77.39
63090;BME280;49174;43.198;27.824;2023-03-23T11:57:43;101807.47;;;13.53;79.11
63090;BME280;49174;43.198;27.824;2023-03-23T12:00:19;101803.16;;;13.58;81.00
63090;BME280;49174;43.198;27.824;2023-03-23T12:05:52;101799.44;;;13.81;80.14
63090;BME280;49174;43.198;27.824;2023-03-23T12:21:11;101789.84;;;12.30;86.89
63090;BME280;49174;43.198;27.824;2023-03-23T12:26:31;101793.22;;;12.32;84.43
63090;BME280;49174;43.198;27.824;2023-03-23T12:29:06;101791.19;;;12.34;84.92
63090;BME280;49174;43.198;27.824;2023-03-23T12:34:11;101787.41;;;11.43;87.30
63090;BME280;49174;43.198;27.824;2023-03-23T12:44:05;101791.06;;;11.81;90.52
63090;BME280;49174;43.198;27.824;2023-03-23T12:56:37;101787.25;;;11.36;88.26
63090;BME280;49174;43.198;27.824;2023-03-23T13:01:34;101778.44;;;11.43;91.72
63090;BME280;49174;43.198;27.824;2023-03-23T13:04:05;101783.22;;;11.63;90.22
63090;BME280;49174;43.198;27.824;2023-03-23T13:06:35;101773.13;;;11.57;88.38
63090;BME280;49174;43.198;27.824;2023-03-23T13:09:03;101768.25;;;11.22;89.92
63090;BME280;49174;43.198;27.824;2023-03-23T13:11:36;101767.19;;;11.31;90.52
63090;BME280;49174;43.198;27.824;2023-03-23T13:19:14;101763.91;;;11.44;88.16
63090;BME280;49174;43.198;27.824;2023-03-23T13:21:50;101766.25;;;11.47;88.06
63090;BME280;49174;43.198;27.824;2023-03-23T13:24:19;101753.22;;;11.50;89.98
63090;BME280;49174;43.198;27.824;2023-03-23T13:26:46;101759.28;;;11.52;89.44
63090;BME280;49174;43.198;27.824;2023-03-23T13:29:15;101756.06;;;11.57;90.02
63090;BME280;49174;43.198;27.824;2023-03-23T13:31:45;101758.47;;;11.75;89.83
63090;BME280;49174;43.198;27.824;2023-03-23T13:34:15;101764.97;;;12.12;90.30
63090;BME280;49174;43.198;27.824;2023-03-23T13:36:42;101756.28;;;12.39;88.53
63090;BME280;49174;43.198;27.824;2023-03-23T13:47:14;101746.41;;;13.06;82.02
63090;BME280;49174;43.198;27.824;2023-03-23T13:49:49;101748.06;;;13.22;80.88
63090;BME280;49174;43.198;27.824;2023-03-23T13:52:17;101748.81;;;13.30;80.98
63090;BME280;49174;43.198;27.824;2023-03-23T13:54:43;101744.50;;;13.36;81.17
63090;BME280;49174;43.198;27.824;2023-03-23T14:05:35;101749.03;;;13.50;79.36
63090;BME280;49174;43.198;27.824;2023-03-23T14:10:37;101747.06;;;13.59;78.23
63090;BME280;49174;43.198;27.824;2023-03-23T14:13:04;101752.59;;;13.51;78.57
63090;BME280;49174;43.198;27.824;2023-03-23T14:15:37;101758.59;;;13.46;77.95
63090;BME280;49174;43.198;27.824;2023-03-23T14:18:05;101758.50;;;13.39;79.92
63090;BME280;49174;43.198;27.824;2023-03-23T14:20:32;101757.41;;;13.34;79.79
63090;BME280;49174;43.198;27.824;2023-03-23T14:22:59;101760.31;;;13.32;81.46
63090;BME280;49174;43.198;27.824;2023-03-23T14:25:29;101751.25;;;13.10;80.28
63090;BME280;49174;43.198;27.824;2023-03-23T14:27:56;101758.09;;;12.77;82.48
63090;BME280;49174;43.198;27.824;2023-03-23T14:30:22;101758.72;;;12.34;82.74
63090;BME280;49174;43.198;27.824;2023-03-23T14:32:50;101764.03;;;12.04;86.01
63090;BME280;49174;43.198;27.824;2023-03-23T14:35:29;101763.50;;;11.78;86.01
63090;BME280;49174;43.198;27.824;2023-03-23T14:37:55;101767.03;;;11.55;86.77
63090;BME280;49174;43.198;27.824;2023-03-23T14:40:21;101760.94;;;11.30;89.58
63090;BME280;49174;43.198;27.824;2023-03-23T14:42:47;101766.25;;;11.15;89.63
63090;BME280;49174;43.198;27.824;2023-03-23T14:45:16;101764.91;;;11.11;91.46
63090;BME280;49174;43.198;27.824;2023-03-23T14:47:44;101770.97;;;11.13;91.07
63090;BME280;49174;43.198;27.824;2023-03-23T14:50:24;101771.66;;;11.15;91.63
63090;BME280;49174;43.198;27.824;2023-03-23T14:52:50;101775.94;;;11.02;91.54
63090;BME280;49174;43.198;27.824;2023-03-23T14:55:19;101770.69;;;11.00;92.65
63090;BME280;49174;43.198;27.824;2023-03-23T14:57:46;101767.69;;;10.95;93.61
63090;BME280;49174;43.198;27.824;2023-03-23T15:00:16;101776.81;;;10.86;93.98
63090;BME280;49174;43.198;27.824;2023-03-23T15:02:44;101768.75;;;10.78;96.91
63090;BME280;49174;43.198;27.824;2023-03-23T15:05:14;101765.38;;;10.84;96.88
63090;BME280;49174;43.198;27.824;2023-03-23T15:07:42;101771.88;;;10.98;95.62
63090;BME280;49174;43.198;27.824;2023-03-23T15:10:08;101767.81;;;11.02;95.48
63090;BME280;49174;43.198;27.824;2023-03-23T15:12:37;101770.19;;;10.96;95.47
63090;BME280;49174;43.198;27.824;2023-03-23T15:15:04;101769.34;;;11.04;95.61
63090;BME280;49174;43.198;27.824;2023-03-23T15:17:32;101768.63;;;11.10;94.81
63090;BME280;49174;43.198;27.824;2023-03-23T15:20:07;101767.75;;;11.18;93.68
63090;BME280;49174;43.198;27.824;2023-03-23T15:22:32;101775.00;;;11.26;92.98
63090;BME280;49174;43.198;27.824;2023-03-23T15:25:09;101769.06;;;11.22;93.16
63090;BME280;49174;43.198;27.824;2023-03-23T15:27:39;101766.56;;;11.21;92.99
63090;BME280;49174;43.198;27.824;2023-03-23T15:30:45;101769.06;;;11.22;92.44
63090;BME280;49174;43.198;27.824;2023-03-23T15:33:01;101769.78;;;11.16;92.88
63090;BME280;49174;43.198;27.824;2023-03-23T15:35:27;101768.25;;;11.22;93.63
63090;BME280;49174;43.198;27.824;2023-03-23T15:37:56;101769.03;;;11.30;93.42
63090;BME280;49174;43.198;27.824;2023-03-23T15:40:23;101766.84;;;11.34;93.10
63090;BME280;49174;43.198;27.824;2023-03-23T15:42:49;101770.88;;;11.38;93.32
63090;BME280;49174;43.198;27.824;2023-03-23T15:45:20;101780.66;;;11.39;92.75
63090;BME280;49174;43.198;27.824;2023-03-23T15:47:47;101774.75;;;11.35;93.29
63090;BME280;49174;43.198;27.824;2023-03-23T15:50:14;101777.97;;;11.31;93.45
63090;BME280;49174;43.198;27.824;2023-03-23T15:52:41;101774.97;;;11.34;93.20
63090;BME280;49174;43.198;27.824;2023-03-23T15:55:20;101780.53;;;11.32;92.13
63090;BME280;49174;43.198;27.824;2023-03-23T15:57:46;101777.16;;;11.30;93.25
63090;BME280;49174;43.198;27.824;2023-03-23T16:00:14;101769.88;;;11.31;91.49
63090;BME280;49174;43.198;27.824;2023-03-23T16:02:40;101769.03;;;11.30;92.00
63090;BME280;49174;43.198;27.824;2023-03-23T16:05:09;101767.69;;;11.34;92.03
63090;BME280;49174;43.198;27.824;2023-03-23T16:07:34;101768.69;;;11.33;91.13
63090;BME280;49174;43.198;27.824;2023-03-23T16:10:00;101769.59;;;11.26;92.64
63090;BME280;49174;43.198;27.824;2023-03-23T16:12:27;101772.13;;;11.19;92.03
63090;BME280;49174;43.198;27.824;2023-03-23T16:14:52;101775.19;;;11.16;93.09
63090;BME280;49174;43.198;27.824;2023-03-23T16:17:18;101775.19;;;11.16;93.96
63090;BME280;49174;43.198;27.824;2023-03-23T16:19:44;101780.78;;;11.14;93.27
63090;BME280;49174;43.198;27.824;2023-03-23T16:22:09;101781.78;;;11.13;93.54
63090;BME280;49174;43.198;27.824;2023-03-23T16:24:35;101782.97;;;11.11;94.29
63090;BME280;49174;43.198;27.824;2023-03-23T16:27:00;101781.47;;;11.08;93.53
63090;BME280;49174;43.198;27.824;2023-03-23T16:29:26;101781.66;;;11.07;94.26
63090;BME280;49174;43.198;27.824;2023-03-23T16:31:51;101784.88;;;11.02;94.47
63090;BME280;49174;43.198;27.824;2023-03-23T16:34:17;101785.22;;;10.99;93.41
63090;BME280;49174;43.198;27.824;2023-03-23T16:36:42;101785.22;;;10.99;93.17
63090;BME280;49174;43.198;27.824;2023-03-23T16:39:09;101798.41;;;10.94;93.59
63090;BME280;49174;43.198;27.824;2023-03-23T16:41:34;101792.84;;;10.87;95.07
63090;BME280;49174;43.198;27.824;2023-03-23T16:44:00;101777.88;;;10.77;94.78
63090;BME280;49174;43.198;27.824;2023-03-23T16:46:25;101778.38;;;10.64;95.32
63090;BME280;49174;43.198;27.824;2023-03-23T16:48:51;101780.25;;;10.55;96.51
63090;BME280;49174;43.198;27.824;2023-03-23T16:51:16;101781.97;;;10.48;96.34
63090;BME280;49174;43.198;27.824;2023-03-23T16:53:42;101793.44;;;10.42;97.34
